Balmat, New York
Current Conditions -  °F | °C
As of 1:58 AM on Thursday 23 Oct 2014 (Local Time) from KGTB Reporting Station
Broken Clouds Broken Clouds  
Wind Chill:   Ceiling: 14000
Heat Index:   Visibility: 10mi
Dew Point:   Wind: 13mph
Humidity: 71%   Direction: 40°NE
Pressure: 30.07"   Gusts: NA
Location:  44.2483°N, 75.3953°W
Report Text: KGTB 230558Z AUTO 04011KT 10SM BKN140 06/01 A3007 RMK AO2 SLP187 T00610012 10085 20061 57017
Loading
Personal Weather Stations






























Interactive Weather Map
Tropical Storm Tracking
New forecast layout! Learn more

10-Day Weather Forecast

Advertisements
Track Severe Weather on mobile